createdAt,value
2023-03-01T00:01:41.281Z,102165.91
2023-03-01T00:04:08.615Z,102165.16
2023-03-01T00:06:36.238Z,102167.41
2023-03-01T00:09:04.059Z,102171.16
2023-03-01T00:11:33.063Z,102174.19
2023-03-01T00:14:07.735Z,102172.53
2023-03-01T00:16:39.873Z,102175.63
2023-03-01T00:19:09.813Z,102187.03
2023-03-01T00:21:38.663Z,102183.38
2023-03-01T00:24:06.241Z,102173.66
2023-03-01T00:26:33.798Z,102179.84
2023-03-01T00:29:01.636Z,102197.31
2023-03-01T00:31:31.034Z,102196.56
2023-03-01T00:34:00.546Z,102187.84
2023-03-01T00:36:31.412Z,102183.06
2023-03-01T00:38:59.034Z,102176.63
2023-03-01T00:41:30.162Z,102180.13
2023-03-01T00:43:57.665Z,102181.97
2023-03-01T00:46:28.488Z,102173.91
2023-03-01T00:48:56.246Z,102184.44
2023-03-01T00:51:26.805Z,102191.13
2023-03-01T00:53:55.828Z,102172.19
2023-03-01T00:56:23.732Z,102174.81
2023-03-01T00:58:51.834Z,102183.13
2023-03-01T01:01:23.713Z,102188.22
2023-03-01T01:03:54.174Z,102178.88
2023-03-01T01:06:29.147Z,102188.56
2023-03-01T01:08:57.073Z,102180.28
2023-03-01T01:11:25.854Z,102183.72
2023-03-01T01:13:54.332Z,102181.66
2023-03-01T01:16:23.305Z,102173.59
2023-03-01T01:18:50.760Z,102171.25
2023-03-01T01:21:20.368Z,102174.66
2023-03-01T01:23:48.592Z,102169.88
2023-03-01T01:26:23.357Z,102169.25
2023-03-01T01:28:51.303Z,102178.31
2023-03-01T01:31:19.653Z,102173.69
2023-03-01T01:33:47.334Z,102165.38
2023-03-01T01:36:14.732Z,102162.81
2023-03-01T01:38:43.548Z,102166.09
2023-03-01T01:41:12.500Z,102154.88
2023-03-01T01:43:45.907Z,102158.84
2023-03-01T01:46:33.487Z,102149.84
2023-03-01T01:49:21.247Z,102148.03
2023-03-01T01:51:49.689Z,102144.69
2023-03-01T01:54:21.728Z,102143.84
2023-03-01T01:56:56.671Z,102141.75
2023-03-01T01:59:25.807Z,102139.03
2023-03-01T02:01:53.782Z,102140.53
2023-03-01T02:04:21.602Z,102135.63
2023-03-01T02:07:11.998Z,102134.06
2023-03-01T02:09:39.788Z,102144.50
2023-03-01T02:12:07.969Z,102142.81
2023-03-01T02:14:35.391Z,102147.38
2023-03-01T02:17:02.888Z,102142.91
2023-03-01T02:20:07.989Z,102141.94
2023-03-01T02:22:39.321Z,102143.34
2023-03-01T02:25:19.185Z,102129.34
2023-03-01T02:27:50.074Z,102127.59
2023-03-01T02:30:17.302Z,102119.16
2023-03-01T02:32:45.185Z,102121.63
2023-03-01T02:35:14.791Z,102120.91
2023-03-01T02:37:43.766Z,102113.06
2023-03-01T02:40:14.934Z,102116.72
2023-03-01T02:42:49.251Z,102122.16
2023-03-01T02:45:17.100Z,102113.41
2023-03-01T02:47:44.513Z,102112.56
2023-03-01T02:50:44.532Z,102111.13
2023-03-01T02:53:21.173Z,102118.28
2023-03-01T02:55:48.630Z,102108.25
2023-03-01T02:58:16.167Z,102104.78
2023-03-01T03:00:48.061Z,102111.97
2023-03-01T03:03:18.412Z,102111.75
2023-03-01T03:05:45.685Z,102105.88
2023-03-01T03:08:13.106Z,102106.09
2023-03-01T03:10:42.051Z,102101.69
2023-03-01T03:13:12.169Z,102085.59
2023-03-01T03:15:40.859Z,102081.97
2023-03-01T03:18:15.834Z,102082.19
2023-03-01T03:20:44.849Z,102081.91
2023-03-01T03:23:12.526Z,102086.41
2023-03-01T03:25:40.091Z,102077.47
2023-03-01T03:28:10.957Z,102077.94
2023-03-01T03:30:40.866Z,102079.19
2023-03-01T03:33:13.168Z,102083.31
2023-03-01T03:35:46.460Z,102085.78
2023-03-01T03:38:17.888Z,102078.78
2023-03-01T03:41:05.803Z,102080.81
2023-03-01T03:43:35.243Z,102083.09
2023-03-01T03:46:06.760Z,102080.47
2023-03-01T03:48:36.332Z,102081.09
2023-03-01T03:51:06.319Z,102075.91
2023-03-01T03:53:33.921Z,102074.97
2023-03-01T03:56:01.408Z,102071.75
2023-03-01T03:58:28.752Z,102068.13
2023-03-01T04:00:58.157Z,102072.97
2023-03-01T04:03:26.852Z,102079.75
2023-03-01T04:05:54.419Z,102085.13
2023-03-01T04:08:23.318Z,102079.59
2023-03-01T04:10:52.541Z,102083.03
2023-03-01T04:13:23.012Z,102072.13
2023-03-01T04:15:51.733Z,102078.69
2023-03-01T04:18:20.675Z,102073.72
2023-03-01T04:20:48.358Z,102075.50
2023-03-01T04:23:20.080Z,102071.13
2023-03-01T04:25:55.904Z,102073.13
2023-03-01T04:28:28.026Z,102077.25
2023-03-01T04:30:57.177Z,102076.91
2023-03-01T04:33:25.495Z,102066.22
2023-03-01T04:35:53.085Z,102061.72
2023-03-01T04:38:21.017Z,102061.19
2023-03-01T04:40:48.711Z,102063.72
2023-03-01T04:43:16.476Z,102060.38
2023-03-01T04:45:43.851Z,102067.13
2023-03-01T04:48:11.518Z,102053.94
2023-03-01T04:50:39.976Z,102053.75
2023-03-01T04:53:07.345Z,102056.66
2023-03-01T04:55:34.849Z,102044.66
2023-03-01T04:58:02.124Z,102052.09
2023-03-01T05:00:32.304Z,102054.59
2023-03-01T05:03:03.077Z,102051.56
2023-03-01T05:05:34.029Z,102047.06
2023-03-01T05:08:04.518Z,102036.09
2023-03-01T05:10:33.788Z,102046.41
2023-03-01T05:13:01.109Z,102044.56
2023-03-01T05:15:32.119Z,102037.66
2023-03-01T05:18:00.726Z,102048.78
2023-03-01T05:20:29.822Z,102038.91
2023-03-01T05:23:00.680Z,102055.19
2023-03-01T05:25:28.227Z,102049.72
2023-03-01T05:27:55.543Z,102038.38
2023-03-01T05:30:23.569Z,102043.69
2023-03-01T05:32:56.924Z,102048.78
2023-03-01T05:35:24.619Z,102047.16
2023-03-01T05:37:52.531Z,102040.25
2023-03-01T05:40:21.869Z,102045.22
2023-03-01T05:42:57.257Z,102030.13
2023-03-01T05:45:26.994Z,102039.63
2023-03-01T05:47:56.109Z,102043.56
2023-03-01T05:50:29.270Z,102042.28
2023-03-01T05:53:09.603Z,102036.81
2023-03-01T05:55:37.308Z,102036.47
2023-03-01T05:58:07.991Z,102030.19
2023-03-01T06:00:35.788Z,102042.06
2023-03-01T06:03:03.401Z,102042.06
2023-03-01T06:05:31.181Z,102036.75
2023-03-01T06:08:02.629Z,102048.41
2023-03-01T06:10:30.367Z,102039.63
2023-03-01T06:12:59.143Z,102031.78
2023-03-01T06:15:27.251Z,102038.41
2023-03-01T06:18:00.042Z,102029.44
2023-03-01T06:20:29.772Z,102013.66
2023-03-01T06:22:57.665Z,102016.16
2023-03-01T06:25:26.757Z,102017.97
2023-03-01T06:27:54.221Z,102015.63
2023-03-01T06:30:23.458Z,102011.03
2023-03-01T06:32:50.997Z,102001.25
2023-03-01T06:35:19.627Z,102009.41
2023-03-01T06:37:48.428Z,102010.53
2023-03-01T06:40:16.675Z,102010.19
2023-03-01T06:42:48.281Z,102013.59
2023-03-01T06:45:15.861Z,102018.59
2023-03-01T06:47:43.342Z,102010.81
2023-03-01T06:50:11.686Z,102009.34
2023-03-01T06:52:39.473Z,102005.69
2023-03-01T06:55:07.634Z,102009.22
2023-03-01T06:57:35.006Z,102009.91
2023-03-01T07:00:03.578Z,101995.84
2023-03-01T07:02:30.931Z,102005.22
2023-03-01T07:04:58.579Z,102009.22
2023-03-01T07:07:26.743Z,101996.91
2023-03-01T07:09:54.498Z,101995.09
2023-03-01T07:12:21.821Z,102001.88
2023-03-01T07:14:49.215Z,101990.25
2023-03-01T07:17:16.606Z,101987.50
2023-03-01T07:19:44.887Z,101993.13
2023-03-01T07:22:12.412Z,102002.03
2023-03-01T07:24:39.694Z,101998.53
2023-03-01T07:27:07.527Z,101988.44
2023-03-01T07:29:37.435Z,102006.91
2023-03-01T07:32:05.308Z,101995.09
2023-03-01T07:34:32.833Z,101994.44
2023-03-01T07:37:00.234Z,102002.13
2023-03-01T07:39:27.667Z,101995.09
2023-03-01T07:41:55.077Z,101997.41
2023-03-01T07:44:23.558Z,101997.19
2023-03-01T07:46:51.149Z,102003.03
2023-03-01T07:49:18.804Z,101999.97
2023-03-01T07:51:46.318Z,101995.78
2023-03-01T07:54:13.536Z,101990.97
2023-03-01T07:56:41.801Z,101995.59
2023-03-01T07:59:09.226Z,101985.97
2023-03-01T08:01:36.587Z,101988.47
2023-03-01T08:04:05.758Z,101989.25
2023-03-01T08:06:35.136Z,101992.59
2023-03-01T08:09:03.343Z,101993.91
2023-03-01T08:11:31.281Z,102003.75
2023-03-01T08:13:58.842Z,101998.44
2023-03-01T08:16:27.306Z,101992.84
2023-03-01T08:18:57.656Z,101995.06
2023-03-01T08:21:25.001Z,101990.44
2023-03-01T08:23:52.649Z,101982.47
2023-03-01T08:26:21.746Z,101983.84
2023-03-01T08:28:50.714Z,101981.66
2023-03-01T08:31:28.530Z,101984.00
2023-03-01T08:33:58.515Z,101984.22
2023-03-01T08:36:28.535Z,101985.00
2023-03-01T08:38:56.505Z,101981.66
2023-03-01T08:41:24.461Z,101975.28
2023-03-01T08:43:52.126Z,101975.81
2023-03-01T08:46:19.617Z,101973.63
2023-03-01T08:48:46.933Z,101965.47
2023-03-01T08:51:17.241Z,101970.16
2023-03-01T08:53:45.129Z,101960.13
2023-03-01T08:56:14.049Z,101971.50
2023-03-01T08:58:41.412Z,101959.28
2023-03-01T09:01:10.155Z,101952.44
2023-03-01T09:03:37.990Z,101970.44
2023-03-01T09:06:06.931Z,101961.09
2023-03-01T09:08:39.356Z,101939.66
2023-03-01T09:11:09.276Z,101949.88
2023-03-01T09:13:36.832Z,101951.00
2023-03-01T09:16:06.169Z,101935.75
2023-03-01T09:18:34.331Z,101929.16
2023-03-01T09:21:09.526Z,101925.78
2023-03-01T09:23:41.359Z,101929.44
2023-03-01T09:26:10.850Z,101925.69
2023-03-01T09:28:38.878Z,101918.66
2023-03-01T09:31:06.620Z,101915.38
2023-03-01T09:33:34.309Z,101910.94
2023-03-01T09:36:03.869Z,101907.91
2023-03-01T09:38:31.522Z,101912.50
2023-03-01T09:40:58.977Z,101910.56
2023-03-01T09:43:35.840Z,101900.94
2023-03-01T09:46:09.319Z,101901.91
2023-03-01T09:48:44.828Z,101906.41
2023-03-01T09:51:19.529Z,101897.50
2023-03-01T09:53:46.859Z,101897.13
2023-03-01T09:56:19.878Z,101888.91
2023-03-01T09:58:55.474Z,101904.69
2023-03-01T10:02:04.877Z,101890.88
2023-03-01T10:04:43.599Z,101895.75
2023-03-01T10:07:19.196Z,101886.50
2023-03-01T10:09:47.156Z,101888.19
2023-03-01T10:12:46.738Z,101878.38
2023-03-01T10:15:26.747Z,101887.13
2023-03-01T10:17:58.064Z,101881.06
2023-03-01T10:20:26.315Z,101875.66
2023-03-01T10:22:56.125Z,101870.31
2023-03-01T10:25:23.446Z,101875.06
2023-03-01T10:27:54.597Z,101860.75
2023-03-01T10:30:27.575Z,101869.88
2023-03-01T10:32:55.328Z,101866.78
2023-03-01T10:35:28.295Z,101870.34
2023-03-01T10:38:08.016Z,101868.56
2023-03-01T10:40:36.837Z,101877.22
2023-03-01T10:43:06.343Z,101861.69
2023-03-01T10:45:39.292Z,101865.09
2023-03-01T10:48:09.438Z,101859.88
2023-03-01T10:50:40.346Z,101861.38
2023-03-01T10:53:30.206Z,101860.81
2023-03-01T10:56:07.103Z,101849.44
2023-03-01T10:58:37.295Z,101853.97
2023-03-01T11:01:16.942Z,101853.28
2023-03-01T11:03:44.366Z,101846.16
2023-03-01T11:06:12.066Z,101845.75
2023-03-01T11:08:40.586Z,101842.41
2023-03-01T11:11:34.377Z,101845.44
2023-03-01T11:14:25.043Z,101848.22
2023-03-01T11:17:27.048Z,101835.53
2023-03-01T11:20:15.637Z,101832.88
2023-03-01T11:22:55.545Z,101834.81
2023-03-01T11:25:37.162Z,101827.94
2023-03-01T11:28:08.286Z,101819.72
2023-03-01T11:31:08.631Z,101823.59
2023-03-01T11:33:36.871Z,101817.28
2023-03-01T11:36:09.663Z,101824.63
2023-03-01T11:38:37.848Z,101821.91
2023-03-01T11:41:17.193Z,101815.38
2023-03-01T11:44:00.332Z,101806.28
2023-03-01T11:46:34.341Z,101803.81
2023-03-01T11:49:26.002Z,101794.03
2023-03-01T11:52:16.451Z,101799.09
2023-03-01T11:55:17.993Z,101787.56
2023-03-01T11:58:04.026Z,101775.53
2023-03-01T12:00:45.661Z,101793.09
2023-03-01T12:03:31.646Z,101781.97
2023-03-01T12:06:17.236Z,101782.19
2023-03-01T12:09:07.891Z,101782.81
2023-03-01T12:12:13.136Z,101763.91
2023-03-01T12:14:50.461Z,101771.50
2023-03-01T12:17:26.587Z,101759.88
2023-03-01T12:20:22.132Z,101755.47
2023-03-01T12:23:20.377Z,101752.16
2023-03-01T12:26:07.934Z,101750.84
2023-03-01T12:28:42.038Z,101750.34
2023-03-01T12:31:44.846Z,101736.63
2023-03-01T12:34:30.448Z,101739.16
2023-03-01T12:37:19.887Z,101740.34
2023-03-01T12:39:56.464Z,101728.47
2023-03-01T12:42:37.306Z,101733.78
2023-03-01T12:45:43.287Z,101718.75
2023-03-01T12:48:39.736Z,101712.38
2023-03-01T12:51:13.322Z,101705.06
2023-03-01T12:53:43.441Z,101707.38
2023-03-01T12:56:13.739Z,101701.53
2023-03-01T12:59:06.213Z,101694.22
2023-03-01T13:01:52.245Z,101681.81
2023-03-01T13:04:50.234Z,101678.47
2023-03-01T13:07:30.071Z,101671.97
2023-03-01T13:10:24.594Z,101666.00
2023-03-01T13:13:14.367Z,101665.56
2023-03-01T13:15:42.294Z,101647.81
2023-03-01T13:18:12.648Z,101648.16
2023-03-01T13:20:42.909Z,101641.41
2023-03-01T13:23:15.150Z,101640.28
2023-03-01T13:26:02.306Z,101646.94
2023-03-01T13:28:45.098Z,101627.13
2023-03-01T13:31:32.507Z,101620.16
2023-03-01T13:34:01.687Z,101636.22
2023-03-01T13:36:29.724Z,101628.25
2023-03-01T13:39:29.613Z,101614.84
2023-03-01T13:41:58.482Z,101612.16
2023-03-01T13:44:33.722Z,101614.88
2023-03-01T13:47:08.577Z,101611.38
2023-03-01T13:50:00.639Z,101602.00
2023-03-01T13:52:30.580Z,101597.00
2023-03-01T13:54:58.179Z,101592.78
2023-03-01T13:57:28.900Z,101590.91
2023-03-01T13:59:56.307Z,101592.81
2023-03-01T14:02:23.798Z,101586.75
2023-03-01T14:05:01.468Z,101581.59
2023-03-01T14:07:32.078Z,101572.56
2023-03-01T14:10:01.521Z,101573.59
2023-03-01T14:13:11.400Z,101570.06
2023-03-01T14:15:57.865Z,101573.22
2023-03-01T14:18:53.223Z,101563.31
2023-03-01T14:21:20.644Z,101569.53
2023-03-01T14:23:47.956Z,101562.66
2023-03-01T14:26:22.231Z,101555.84
2023-03-01T14:28:50.612Z,101556.16
2023-03-01T14:31:40.955Z,101565.72
2023-03-01T14:34:23.890Z,101555.91
2023-03-01T14:36:51.329Z,101542.50
2023-03-01T14:39:22.159Z,101551.53
2023-03-01T14:41:49.733Z,101541.66
2023-03-01T14:44:23.968Z,101544.91
2023-03-01T14:46:56.294Z,101542.16
2023-03-01T14:49:27.293Z,101551.75
2023-03-01T14:52:06.402Z,101545.38
2023-03-01T14:54:46.096Z,101537.53
2023-03-01T14:57:27.426Z,101546.91
2023-03-01T14:59:57.044Z,101541.16
2023-03-01T15:02:29.304Z,101531.28
2023-03-01T15:05:01.974Z,101538.97
2023-03-01T15:07:32.758Z,101540.88
2023-03-01T15:10:00.978Z,101547.69
2023-03-01T15:12:28.311Z,101534.00
2023-03-01T15:15:03.861Z,101525.75
2023-03-01T15:17:34.190Z,101533.72
2023-03-01T15:20:04.685Z,101528.00
2023-03-01T15:22:32.244Z,101521.13
2023-03-01T15:25:00.049Z,101521.72
2023-03-01T15:27:28.407Z,101522.78
2023-03-01T15:30:00.800Z,101516.22
2023-03-01T15:32:34.700Z,101535.66
2023-03-01T15:35:57.495Z,101521.31
2023-03-01T15:38:59.001Z,101529.56
2023-03-01T15:41:48.029Z,101520.28
2023-03-01T15:44:29.931Z,101520.03
2023-03-01T15:47:03.145Z,101506.03
2023-03-01T15:49:49.609Z,101521.88
2023-03-01T15:52:40.215Z,101516.44
2023-03-01T15:55:35.544Z,101504.69
2023-03-01T15:58:18.601Z,101496.97
2023-03-01T16:01:00.317Z,101505.44
2023-03-01T16:03:29.331Z,101514.97
2023-03-01T16:05:56.757Z,101511.97
2023-03-01T16:08:24.448Z,101502.13
2023-03-01T16:10:52.577Z,101504.88
2023-03-01T16:13:20.374Z,101497.97
2023-03-01T16:15:47.901Z,101500.69
2023-03-01T16:18:15.484Z,101488.69
2023-03-01T16:20:44.000Z,101486.72
2023-03-01T16:23:12.721Z,101493.88
2023-03-01T16:25:40.202Z,101509.50
2023-03-01T16:28:11.044Z,101501.50
2023-03-01T16:30:40.653Z,101504.03
2023-03-01T16:33:28.842Z,101505.97
2023-03-01T16:35:56.909Z,101515.88
2023-03-01T16:38:24.621Z,101525.34
2023-03-01T16:40:53.212Z,101523.38
2023-03-01T16:43:20.716Z,101515.72
2023-03-01T16:45:48.118Z,101516.78
2023-03-01T16:48:15.748Z,101523.88
2023-03-01T16:50:43.030Z,101510.22
2023-03-01T16:53:10.903Z,101521.13
2023-03-01T16:55:39.053Z,101507.25
2023-03-01T16:58:06.831Z,101508.56
2023-03-01T17:00:34.161Z,101508.56
2023-03-01T17:03:01.507Z,101512.91
2023-03-01T17:05:28.834Z,101515.09
2023-03-01T17:07:59.118Z,101516.25
2023-03-01T17:10:27.038Z,101512.91
2023-03-01T17:12:54.920Z,101516.19
2023-03-01T17:15:22.333Z,101514.16
2023-03-01T17:17:52.040Z,101514.72
2023-03-01T17:20:20.141Z,101508.09
2023-03-01T17:22:47.603Z,101506.75
2023-03-01T17:25:15.963Z,101515.72
2023-03-01T17:27:43.434Z,101522.59
2023-03-01T17:30:12.705Z,101512.25
2023-03-01T17:32:40.344Z,101519.16
2023-03-01T17:35:08.836Z,101519.00
2023-03-01T17:37:37.252Z,101525.53
2023-03-01T17:40:05.554Z,101522.56
2023-03-01T17:42:33.492Z,101527.88
2023-03-01T17:45:02.850Z,101527.09
2023-03-01T17:47:30.223Z,101524.47
2023-03-01T17:49:57.498Z,101534.75
2023-03-01T17:52:24.851Z,101538.97
2023-03-01T17:54:52.106Z,101529.81
2023-03-01T17:57:19.613Z,101536.00
2023-03-01T17:59:47.030Z,101536.38
2023-03-01T18:02:14.458Z,101537.31
2023-03-01T18:04:41.720Z,101541.03
2023-03-01T18:07:09.125Z,101537.72
2023-03-01T18:09:36.552Z,101545.06
2023-03-01T18:12:04.031Z,101558.66
2023-03-01T18:14:33.910Z,101549.31
2023-03-01T18:17:06.624Z,101548.56
2023-03-01T18:19:34.312Z,101556.19
2023-03-01T18:22:01.498Z,101565.81
2023-03-01T18:24:28.908Z,101563.03
2023-03-01T18:26:56.241Z,101559.75
2023-03-01T18:29:23.579Z,101558.13
2023-03-01T18:31:51.326Z,101563.13
2023-03-01T18:34:19.103Z,101557.66
2023-03-01T18:37:00.478Z,101556.34
2023-03-01T18:39:33.613Z,101573.34
2023-03-01T18:42:00.928Z,101570.47
2023-03-01T18:44:28.275Z,101575.22
2023-03-01T18:46:58.355Z,101566.03
2023-03-01T18:49:26.335Z,101564.66
2023-03-01T18:51:53.416Z,101569.03
2023-03-01T18:54:20.824Z,101562.41
2023-03-01T18:56:48.977Z,101567.94
2023-03-01T18:59:16.437Z,101559.41
2023-03-01T19:01:43.825Z,101572.25
2023-03-01T19:04:11.866Z,101569.09
2023-03-01T19:06:39.459Z,101559.66
2023-03-01T19:09:08.016Z,101567.59
2023-03-01T19:11:35.783Z,101561.44
2023-03-01T19:14:04.148Z,101565.59
2023-03-01T19:16:33.385Z,101572.56
2023-03-01T19:19:02.780Z,101576.56
2023-03-01T19:21:32.141Z,101565.50
2023-03-01T19:24:02.603Z,101578.78
2023-03-01T19:26:31.444Z,101562.19
2023-03-01T19:28:59.497Z,101567.22
2023-03-01T19:31:28.959Z,101568.31
2023-03-01T19:34:10.044Z,101564.63
2023-03-01T19:36:43.217Z,101567.59
2023-03-01T19:39:13.543Z,101562.41
2023-03-01T19:41:42.773Z,101558.63
2023-03-01T19:44:10.210Z,101563.84
2023-03-01T19:46:37.724Z,101562.38
2023-03-01T19:49:05.888Z,101563.88
2023-03-01T19:51:36.103Z,101563.69
2023-03-01T19:54:03.859Z,101563.53
2023-03-01T19:56:32.083Z,101568.38
2023-03-01T19:59:00.742Z,101565.41
2023-03-01T20:01:29.758Z,101564.06
2023-03-01T20:03:57.316Z,101565.44
2023-03-01T20:06:25.786Z,101563.47
2023-03-01T20:08:53.197Z,101559.59
2023-03-01T20:11:21.258Z,101563.50
2023-03-01T20:13:48.754Z,101562.50
2023-03-01T20:16:18.897Z,101571.16
2023-03-01T20:18:46.350Z,101562.81
2023-03-01T20:21:23.649Z,101562.72
2023-03-01T20:23:52.637Z,101559.66
2023-03-01T20:26:25.549Z,101565.84
2023-03-01T20:28:55.389Z,101562.91
2023-03-01T20:31:29.750Z,101563.66
2023-03-01T20:33:59.045Z,101567.84
2023-03-01T20:36:27.800Z,101558.03
2023-03-01T20:38:55.730Z,101561.94
2023-03-01T20:41:26.441Z,101554.63
2023-03-01T20:43:56.489Z,101555.41
2023-03-01T20:46:26.632Z,101553.28
2023-03-01T20:48:54.287Z,101548.94
2023-03-01T20:51:21.687Z,101546.13
2023-03-01T20:53:49.573Z,101551.59
2023-03-01T20:56:18.177Z,101545.69
2023-03-01T20:59:08.292Z,101554.81
2023-03-01T21:01:36.908Z,101558.31
2023-03-01T21:04:04.438Z,101552.81
2023-03-01T21:06:32.448Z,101553.78
2023-03-01T21:09:00.003Z,101556.09
2023-03-01T21:11:27.601Z,101559.13
2023-03-01T21:13:55.508Z,101551.78
2023-03-01T21:16:23.296Z,101551.38
2023-03-01T21:18:50.571Z,101552.88
2023-03-01T21:21:20.981Z,101545.69
2023-03-01T21:23:48.825Z,101554.09
2023-03-01T21:26:19.492Z,101544.13
2023-03-01T21:28:48.148Z,101540.97
2023-03-01T21:31:17.004Z,101540.44
2023-03-01T21:33:46.947Z,101540.00
2023-03-01T21:36:14.974Z,101533.84
2023-03-01T21:38:43.747Z,101533.53
2023-03-01T21:41:14.159Z,101548.19
2023-03-01T21:43:43.230Z,101535.41
2023-03-01T21:46:14.134Z,101538.41
2023-03-01T21:48:44.273Z,101542.81
2023-03-01T21:51:15.108Z,101532.56
2023-03-01T21:53:43.227Z,101535.69
2023-03-01T21:56:22.353Z,101536.47
2023-03-01T21:58:49.995Z,101540.81
2023-03-01T22:01:20.178Z,101540.50
2023-03-01T22:03:47.961Z,101535.56
2023-03-01T22:06:19.947Z,101532.72
2023-03-01T22:08:50.275Z,101529.72
2023-03-01T22:11:18.657Z,101523.00
2023-03-01T22:13:49.561Z,101526.94
2023-03-01T22:16:19.220Z,101534.09
2023-03-01T22:18:46.964Z,101532.50
2023-03-01T22:21:14.560Z,101527.44
2023-03-01T22:23:42.693Z,101524.88
2023-03-01T22:26:25.041Z,101518.69
2023-03-01T22:28:53.483Z,101529.22
2023-03-01T22:31:21.577Z,101532.63
2023-03-01T22:33:49.407Z,101526.59
2023-03-01T22:36:16.879Z,101530.44
2023-03-01T22:38:44.300Z,101533.44
2023-03-01T22:41:11.562Z,101524.00
2023-03-01T22:43:39.052Z,101519.00
2023-03-01T22:46:12.002Z,101515.84
2023-03-01T22:48:39.877Z,101520.97
2023-03-01T22:51:07.585Z,101516.53
2023-03-01T22:53:35.098Z,101518.47
2023-03-01T22:56:24.102Z,101517.66
2023-03-01T22:58:51.473Z,101517.72
2023-03-01T23:01:21.242Z,101516.88
2023-03-01T23:03:49.082Z,101527.75
2023-03-01T23:06:18.137Z,101524.16
2023-03-01T23:08:56.007Z,101516.19
2023-03-01T23:11:26.030Z,101515.09
2023-03-01T23:13:56.504Z,101514.88
2023-03-01T23:16:27.017Z,101513.94
2023-03-01T23:18:56.057Z,101514.66
2023-03-01T23:21:23.558Z,101510.34
2023-03-01T23:23:51.171Z,101507.66
2023-03-01T23:26:18.836Z,101505.56
2023-03-01T23:28:47.476Z,101508.13
2023-03-01T23:31:15.476Z,101507.13
2023-03-01T23:33:45.165Z,101504.88
2023-03-01T23:36:22.588Z,101501.94
2023-03-01T23:38:53.639Z,101494.94
2023-03-01T23:41:24.534Z,101493.84
2023-03-01T23:43:54.218Z,101490.59
2023-03-01T23:46:23.626Z,101486.97
2023-03-01T23:48:51.369Z,101499.28
2023-03-01T23:51:19.191Z,101490.72
2023-03-01T23:53:56.109Z,101493.19
2023-03-01T23:56:28.958Z,101484.75
2023-03-01T23:58:58.693Z,101490.13
